Marit Maersk — OWYH2 — position and weather

sailwx.info

Track history (hours):
 
Tides and Currents Weather Stations Pressure Air Temp Water Temp Dewpoint Dewpoint Depression Visibility Wind Speed Wind Dir Waves Ship Positions

Marit Maersk

Last reported at 2018-Apr-21 21:31 UTC. Time now 2018-Apr-23 07:47 UTC.
Position N 30°33' E 122°15'.

Length 399 m; draft 12.9 m.

Type: Ship (hazmat cat A). MMSI: 219632000.

Date/timePositionNaut miles runAvg speedWind from/ knotsBaromVisibWave heightAir tempDewpointWater temp
2018-Apr-21 21:31N 30°33' E 122°15'210.0
2018-Apr-21 21:18N 30°33' E 122°13'514.8
2018-Apr-21 20:59N 30°35' E 122°08'5 9.5
2018-Apr-21 20:30N 30°37' E 122°03'0 0.6
2018-Apr-21 20:00N 30°38' E 122°03'0 0.0
2018-Apr-21 19:00N 30°38' E 122°03'0 0.0
2018-Apr-21 18:28N 30°38' E 122°03'0 0.0
2018-Apr-21 18:00N 30°38' E 122°03'0 0.0
2018-Apr-21 17:31N 30°38' E 122°03'0 0.0
2018-Apr-21 16:58N 30°38' E 122°03'0 0.0
2018-Apr-21 16:30N 30°38' E 122°03'0 0.0
2018-Apr-21 16:01N 30°38' E 122°03'0 0.0
2018-Apr-21 14:34N 30°38' E 122°03'0 0.0
2018-Apr-21 14:30N 30°38' E 122°03'0 0.0
2018-Apr-21 13:14N 30°38' E 122°03'0 0.0
2018-Apr-21 12:59N 30°38' E 122°03'0 0.0
2018-Apr-21 12:25N 30°38' E 122°03'0 0.0
2018-Apr-21 10:19N 30°38' E 122°03'0 0.0
2018-Apr-21 09:45N 30°38' E 122°03'0 0.0
2018-Apr-21 09:25N 30°38' E 122°03'0 0.0
2018-Apr-21 08:58N 30°38' E 122°03'0 0.0
2018-Apr-21 08:30N 30°38' E 122°03'0 0.0
2018-Apr-21 07:59N 30°38' E 122°03'0 0.0
2018-Apr-21 07:10N 30°38' E 122°03'0 0.0
2018-Apr-21 05:11N 30°38' E 122°03'0 0.0
2018-Apr-21 04:55N 30°38' E 122°03'0 0.0
2018-Apr-21 02:49N 30°38' E 122°03'0 0.0
2018-Apr-21 02:30N 30°38' E 122°03'0 0.0
2018-Apr-21 02:00N 30°38' E 122°03'0 0.0
2018-Apr-21 01:29N 30°38' E 122°03'0 0.0
2018-Apr-21 00:56N 30°38' E 122°03'0 0.0
2018-Apr-20 22:51N 30°38' E 122°03'0 0.0
2018-Apr-20 22:29N 30°38' E 122°03'0 0.0
2018-Apr-20 21:56N 30°38' E 122°03'0 0.0
2018-Apr-20 21:10N 30°38' E 122°03'0 0.0
2018-Apr-20 20:53N 30°38' E 122°03'0 0.1
2018-Apr-20 20:22N 30°38' E 122°03'0 0.7
2018-Apr-20 20:00N 30°37' E 122°03'1 2.0
2018-Apr-20 19:30N 30°37' E 122°04'2 3.8
2018-Apr-20 18:59N 30°36' E 122°06'3 5.9
2018-Apr-20 18:29N 30°34' E 122°09'5 9.9
2018-Apr-20 17:59N 30°33' E 122°15'37316.6
2018-Apr-19 19:27N 24°35' E 120°17'2121.5
2018-Apr-19 18:29N 24°17' E 120°06'2521.9
2018-Apr-19 17:20N 23°54' E 119°55'924.1
2018-Apr-19 16:58N 23°45' E 119°53'1125.1
2018-Apr-19 16:30N 23°33' E 119°53'1224.9
2018-Apr-19 16:00N 23°21' E 119°52'1324.3
2018-Apr-19 15:29N 23°08' E 119°50'1123.7
2018-Apr-19 15:00N 22°59' E 119°44'1324.0
2018-Apr-19 14:28N 22°48' E 119°37'1123.3
2018-Apr-19 14:00N 22°38' E 119°31'1222.5
2018-Apr-19 13:30N 22°28' E 119°25'1121.8
2018-Apr-19 12:58N 22°19' E 119°18'1021.3
2018-Apr-19 12:30N 22°10' E 119°12'  
2018-Apr-16 10:57N 01°15' E 104°03'817.7
2018-Apr-16 10:30N 01°13' E 103°55'611.9
2018-Apr-16 10:00N 01°12' E 103°49'4 7.2
2018-Apr-16 09:30N 01°14' E 103°47'2 4.6
2018-Apr-16 08:58N 01°17' E 103°45'0 0.0
2018-Apr-16 08:28N 01°17' E 103°45'0 0.0
2018-Apr-16 07:58N 01°17' E 103°45'0 0.0
2018-Apr-16 07:28N 01°17' E 103°45'0 0.0
2018-Apr-16 06:58N 01°17' E 103°45'0 0.0
2018-Apr-16 06:30N 01°17' E 103°45'0 0.0
2018-Apr-16 05:57N 01°17' E 103°45'0 0.0
2018-Apr-16 05:30N 01°17' E 103°45'0 0.0
2018-Apr-16 05:00N 01°17' E 103°45'0 0.0
2018-Apr-16 04:30N 01°17' E 103°45'0 0.0
2018-Apr-16 03:57N 01°17' E 103°45'0 0.0
2018-Apr-16 03:24N 01°17' E 103°45'0 0.0
2018-Apr-16 02:57N 01°17' E 103°45'0 0.0
2018-Apr-16 02:30N 01°17' E 103°45'0 0.0
2018-Apr-16 01:57N 01°17' E 103°45'0 0.0
2018-Apr-16 01:27N 01°17' E 103°45'0 0.0
2018-Apr-16 00:51N 01°17' E 103°45'0 0.0
2018-Apr-16 00:27N 01°17' E 103°45'0 0.0
2018-Apr-15 23:57N 01°17' E 103°45'0 0.0
2018-Apr-15 23:30N 01°17' E 103°45'0 0.0
2018-Apr-15 23:00N 01°17' E 103°45'0 0.0
2018-Apr-15 22:30N 01°17' E 103°45'0 0.0
2018-Apr-15 21:57N 01°17' E 103°45'0 0.0
2018-Apr-15 21:30N 01°17' E 103°45'0 0.0
2018-Apr-15 21:00N 01°17' E 103°45'0 0.0
2018-Apr-15 20:30N 01°17' E 103°45'0 0.0
2018-Apr-15 19:57N 01°17' E 103°45'0 0.0
2018-Apr-15 19:27N 01°17' E 103°45'0 0.0
2018-Apr-15 18:57N 01°17' E 103°45'0 0.0
2018-Apr-15 18:27N 01°17' E 103°45'0 0.0
2018-Apr-15 18:00N 01°17' E 103°45'0 0.0
2018-Apr-15 17:30N 01°17' E 103°45'0 0.0
2018-Apr-15 17:00N 01°17' E 103°45'0 0.0
2018-Apr-15 16:30N 01°17' E 103°45'0 0.0
2018-Apr-15 16:00N 01°17' E 103°45'0 0.0
2018-Apr-15 15:30N 01°17' E 103°45'0 0.0
2018-Apr-15 15:00N 01°17' E 103°45'0 0.0
2018-Apr-15 14:30N 01°17' E 103°45'0 0.0
2018-Apr-15 14:01N 01°17' E 103°45'0 0.1
2018-Apr-15 13:30N 01°17' E 103°45'0 0.7
2018-Apr-15 12:59N 01°16' E 103°45'1 3.1
2018-Apr-15 12:30N 01°15' E 103°46'3 6.0
2018-Apr-15 12:00N 01°14' E 103°43'4 8.0
2018-Apr-15 11:30N 01°12' E 103°39'3 6.1
2018-Apr-15 10:59N 01°12' E 103°36'3 6.3
2018-Apr-15 10:30N 01°12' E 103°33'3 6.3
2018-Apr-15 10:00N 01°11' E 103°30'3 6.8
2018-Apr-15 09:30N 01°11' E 103°27'2 4.7
2018-Apr-15 08:59N 01°12' E 103°25'2 4.9
2018-Apr-15 08:30N 01°13' E 103°23'4 7.3
2018-Apr-15 07:59N 01°16' E 103°20'4 8.9
2018-Apr-15 07:30N 01°19' E 103°17'5 8.7
2018-Apr-15 06:54N 01°22' E 103°13'  
Track history (hours):
 
Tides and Currents Weather Stations Pressure Air Temp Water Temp Dewpoint Dewpoint Depression Visibility Wind Speed Wind Dir Waves Ship Positions

Marit Maersk

Last reported at 2018-Apr-21 21:31 UTC. Time now 2018-Apr-23 07:47 UTC.
Position N 30°33' E 122°15'.

Length 399 m; draft 12.9 m.

Type: Ship (hazmat cat A). MMSI: 219632000.

Date/timePositionNaut miles runAvg speedWind from/ knotsBaromVisibWave heightAir tempDewpointWater temp
2018-Apr-21 21:31N 30°33' E 122°15'210.0
2018-Apr-21 21:18N 30°33' E 122°13'514.8
2018-Apr-21 20:59N 30°35' E 122°08'5 9.5
2018-Apr-21 20:30N 30°37' E 122°03'0 0.6
2018-Apr-21 20:00N 30°38' E 122°03'0 0.0
2018-Apr-21 19:00N 30°38' E 122°03'0 0.0
2018-Apr-21 18:28N 30°38' E 122°03'0 0.0
2018-Apr-21 18:00N 30°38' E 122°03'0 0.0
2018-Apr-21 17:31N 30°38' E 122°03'0 0.0
2018-Apr-21 16:58N 30°38' E 122°03'0 0.0
2018-Apr-21 16:30N 30°38' E 122°03'0 0.0
2018-Apr-21 16:01N 30°38' E 122°03'0 0.0
2018-Apr-21 14:34N 30°38' E 122°03'0 0.0
2018-Apr-21 14:30N 30°38' E 122°03'0 0.0
2018-Apr-21 13:14N 30°38' E 122°03'0 0.0
2018-Apr-21 12:59N 30°38' E 122°03'0 0.0
2018-Apr-21 12:25N 30°38' E 122°03'0 0.0
2018-Apr-21 10:19N 30°38' E 122°03'0 0.0
2018-Apr-21 09:45N 30°38' E 122°03'0 0.0
2018-Apr-21 09:25N 30°38' E 122°03'0 0.0
2018-Apr-21 08:58N 30°38' E 122°03'0 0.0
2018-Apr-21 08:30N 30°38' E 122°03'0 0.0
2018-Apr-21 07:59N 30°38' E 122°03'0 0.0
2018-Apr-21 07:10N 30°38' E 122°03'0 0.0
2018-Apr-21 05:11N 30°38' E 122°03'0 0.0
2018-Apr-21 04:55N 30°38' E 122°03'0 0.0
2018-Apr-21 02:49N 30°38' E 122°03'0 0.0
2018-Apr-21 02:30N 30°38' E 122°03'0 0.0
2018-Apr-21 02:00N 30°38' E 122°03'0 0.0
2018-Apr-21 01:29N 30°38' E 122°03'0 0.0
2018-Apr-21 00:56N 30°38' E 122°03'0 0.0
2018-Apr-20 22:51N 30°38' E 122°03'0 0.0
2018-Apr-20 22:29N 30°38' E 122°03'0 0.0
2018-Apr-20 21:56N 30°38' E 122°03'0 0.0
2018-Apr-20 21:10N 30°38' E 122°03'0 0.0
2018-Apr-20 20:53N 30°38' E 122°03'0 0.1
2018-Apr-20 20:22N 30°38' E 122°03'0 0.7
2018-Apr-20 20:00N 30°37' E 122°03'1 2.0
2018-Apr-20 19:30N 30°37' E 122°04'2 3.8
2018-Apr-20 18:59N 30°36' E 122°06'3 5.9
2018-Apr-20 18:29N 30°34' E 122°09'5 9.9
2018-Apr-20 17:59N 30°33' E 122°15'37316.6
2018-Apr-19 19:27N 24°35' E 120°17'2121.5
2018-Apr-19 18:29N 24°17' E 120°06'2521.9
2018-Apr-19 17:20N 23°54' E 119°55'924.1
2018-Apr-19 16:58N 23°45' E 119°53'1125.1
2018-Apr-19 16:30N 23°33' E 119°53'1224.9
2018-Apr-19 16:00N 23°21' E 119°52'1324.3
2018-Apr-19 15:29N 23°08' E 119°50'1123.7
2018-Apr-19 15:00N 22°59' E 119°44'1324.0
2018-Apr-19 14:28N 22°48' E 119°37'1123.3
2018-Apr-19 14:00N 22°38' E 119°31'1222.5
2018-Apr-19 13:30N 22°28' E 119°25'1121.8
2018-Apr-19 12:58N 22°19' E 119°18'1021.3
2018-Apr-19 12:30N 22°10' E 119°12'  
2018-Apr-16 10:57N 01°15' E 104°03'817.7
2018-Apr-16 10:30N 01°13' E 103°55'611.9
2018-Apr-16 10:00N 01°12' E 103°49'4 7.2
2018-Apr-16 09:30N 01°14' E 103°47'2 4.6
2018-Apr-16 08:58N 01°17' E 103°45'0 0.0
2018-Apr-16 08:28N 01°17' E 103°45'0 0.0
2018-Apr-16 07:58N 01°17' E 103°45'0 0.0
2018-Apr-16 07:28N 01°17' E 103°45'0 0.0
2018-Apr-16 06:58N 01°17' E 103°45'0 0.0
2018-Apr-16 06:30N 01°17' E 103°45'0 0.0
2018-Apr-16 05:57N 01°17' E 103°45'0 0.0
2018-Apr-16 05:30N 01°17' E 103°45'0 0.0
2018-Apr-16 05:00N 01°17' E 103°45'0 0.0
2018-Apr-16 04:30N 01°17' E 103°45'0 0.0
2018-Apr-16 03:57N 01°17' E 103°45'0 0.0
2018-Apr-16 03:24N 01°17' E 103°45'0 0.0
2018-Apr-16 02:57N 01°17' E 103°45'0 0.0
2018-Apr-16 02:30N 01°17' E 103°45'0 0.0
2018-Apr-16 01:57N 01°17' E 103°45'0 0.0
2018-Apr-16 01:27N 01°17' E 103°45'0 0.0
2018-Apr-16 00:51N 01°17' E 103°45'0 0.0
2018-Apr-16 00:27N 01°17' E 103°45'0 0.0
2018-Apr-15 23:57N 01°17' E 103°45'0 0.0
2018-Apr-15 23:30N 01°17' E 103°45'0 0.0
2018-Apr-15 23:00N 01°17' E 103°45'0 0.0
2018-Apr-15 22:30N 01°17' E 103°45'0 0.0
2018-Apr-15 21:57N 01°17' E 103°45'0 0.0
2018-Apr-15 21:30N 01°17' E 103°45'0 0.0
2018-Apr-15 21:00N 01°17' E 103°45'0 0.0
2018-Apr-15 20:30N 01°17' E 103°45'0 0.0
2018-Apr-15 19:57N 01°17' E 103°45'0 0.0
2018-Apr-15 19:27N 01°17' E 103°45'0 0.0
2018-Apr-15 18:57N 01°17' E 103°45'0 0.0
2018-Apr-15 18:27N 01°17' E 103°45'0 0.0
2018-Apr-15 18:00N 01°17' E 103°45'0 0.0
2018-Apr-15 17:30N 01°17' E 103°45'0 0.0
2018-Apr-15 17:00N 01°17' E 103°45'0 0.0
2018-Apr-15 16:30N 01°17' E 103°45'0 0.0
2018-Apr-15 16:00N 01°17' E 103°45'0 0.0
2018-Apr-15 15:30N 01°17' E 103°45'0 0.0
2018-Apr-15 15:00N 01°17' E 103°45'0 0.0
2018-Apr-15 14:30N 01°17' E 103°45'0 0.0
2018-Apr-15 14:01N 01°17' E 103°45'0 0.1
2018-Apr-15 13:30N 01°17' E 103°45'0 0.7
2018-Apr-15 12:59N 01°16' E 103°45'1 3.1
2018-Apr-15 12:30N 01°15' E 103°46'3 6.0
2018-Apr-15 12:00N 01°14' E 103°43'4 8.0
2018-Apr-15 11:30N 01°12' E 103°39'3 6.1
2018-Apr-15 10:59N 01°12' E 103°36'3 6.3
2018-Apr-15 10:30N 01°12' E 103°33'3 6.3
2018-Apr-15 10:00N 01°11' E 103°30'3 6.8
2018-Apr-15 09:30N 01°11' E 103°27'2 4.7
2018-Apr-15 08:59N 01°12' E 103°25'2 4.9
2018-Apr-15 08:30N 01°13' E 103°23'4 7.3
2018-Apr-15 07:59N 01°16' E 103°20'4 8.9
2018-Apr-15 07:30N 01°19' E 103°17'5 8.7
2018-Apr-15 06:54N 01°22' E 103°13'  

Dump ship's entire track history